sensor_id;sensor_type;location;lat;lon;timestamp;P1;durP1;ratioP1;P2;durP2;ratioP2
52458;SDS011;38372;52.902;6.024;2023-11-21T07:11:10;8.73;;;2.65;;
52458;SDS011;38372;52.902;6.024;2023-11-21T07:13:36;9.27;;;3.30;;
52458;SDS011;38372;52.902;6.024;2023-11-21T07:16:02;9.40;;;3.88;;
52458;SDS011;38372;52.902;6.024;2023-11-21T07:18:28;5.20;;;2.97;;
52458;SDS011;38372;52.902;6.024;2023-11-21T07:20:54;10.05;;;3.03;;
52458;SDS011;38372;52.902;6.024;2023-11-21T07:23:19;9.73;;;3.30;;
52458;SDS011;38372;52.902;6.024;2023-11-21T07:25:47;11.15;;;3.33;;
52458;SDS011;38372;52.902;6.024;2023-11-21T07:28:13;7.47;;;2.67;;
52458;SDS011;38372;52.902;6.024;2023-11-21T07:30:39;8.18;;;3.10;;
52458;SDS011;38372;52.902;6.024;2023-11-21T07:33:05;7.53;;;2.78;;
52458;SDS011;38372;52.902;6.024;2023-11-21T07:35:32;6.25;;;2.50;;
52458;SDS011;38372;52.902;6.024;2023-11-21T07:38:01;6.07;;;2.55;;
52458;SDS011;38372;52.902;6.024;2023-11-21T07:40:27;6.53;;;3.25;;
52458;SDS011;38372;52.902;6.024;2023-11-21T07:42:53;9.57;;;3.78;;
52458;SDS011;38372;52.902;6.024;2023-11-21T07:45:19;10.23;;;3.70;;
52458;SDS011;38372;52.902;6.024;2023-11-21T07:47:54;7.57;;;3.15;;
52458;SDS011;38372;52.902;6.024;2023-11-21T07:53:58;6.95;;;2.55;;
52458;SDS011;38372;52.902;6.024;2023-11-21T07:56:24;7.93;;;2.90;;
52458;SDS011;38372;52.902;6.024;2023-11-21T07:58:49;6.50;;;2.60;;
52458;SDS011;38372;52.902;6.024;2023-11-21T08:01:15;9.80;;;2.33;;
52458;SDS011;38372;52.902;6.024;2023-11-21T08:03:41;11.45;;;3.35;;
52458;SDS011;38372;52.902;6.024;2023-11-21T08:06:10;7.85;;;3.00;;
52458;SDS011;38372;52.902;6.024;2023-11-21T08:08:37;9.95;;;3.38;;
52458;SDS011;38372;52.902;6.024;2023-11-21T08:11:02;9.38;;;2.88;;
52458;SDS011;38372;52.902;6.024;2023-11-21T08:13:29;8.60;;;3.20;;
52458;SDS011;38372;52.902;6.024;2023-11-21T08:15:58;8.32;;;3.10;;
52458;SDS011;38372;52.902;6.024;2023-11-21T08:18:27;7.07;;;3.33;;
52458;SDS011;38372;52.902;6.024;2023-11-21T08:20:56;8.02;;;3.05;;
52458;SDS011;38372;52.902;6.024;2023-11-21T08:23:43;8.23;;;2.90;;
52458;SDS011;38372;52.902;6.024;2023-11-21T08:26:09;12.52;;;3.88;;
52458;SDS011;38372;52.902;6.024;2023-11-21T08:28:49;8.43;;;3.28;;
52458;SDS011;38372;52.902;6.024;2023-11-21T08:31:25;7.90;;;2.90;;
52458;SDS011;38372;52.902;6.024;2023-11-21T08:33:51;4.93;;;2.17;;
52458;SDS011;38372;52.902;6.024;2023-11-21T08:36:21;7.18;;;2.78;;
52458;SDS011;38372;52.902;6.024;2023-11-21T08:38:49;6.40;;;2.95;;
52458;SDS011;38372;52.902;6.024;2023-11-21T08:41:17;8.65;;;3.35;;
52458;SDS011;38372;52.902;6.024;2023-11-21T08:43:47;6.20;;;2.50;;
52458;SDS011;38372;52.902;6.024;2023-11-21T08:46:16;8.82;;;2.30;;
52458;SDS011;38372;52.902;6.024;2023-11-21T08:48:44;6.33;;;2.63;;
52458;SDS011;38372;52.902;6.024;2023-11-21T08:51:11;8.82;;;2.63;;
52458;SDS011;38372;52.902;6.024;2023-11-21T08:53:37;6.00;;;2.55;;
52458;SDS011;38372;52.902;6.024;2023-11-21T08:56:03;7.07;;;3.17;;
52458;SDS011;38372;52.902;6.024;2023-11-21T08:58:30;9.63;;;3.53;;
52458;SDS011;38372;52.902;6.024;2023-11-21T09:00:57;12.07;;;3.13;;
52458;SDS011;38372;52.902;6.024;2023-11-21T09:03:23;9.90;;;4.00;;
52458;SDS011;38372;52.902;6.024;2023-11-21T09:05:50;10.95;;;3.33;;
52458;SDS011;38372;52.902;6.024;2023-11-21T09:08:16;7.43;;;2.55;;
52458;SDS011;38372;52.902;6.024;2023-11-21T09:10:42;9.20;;;2.92;;
52458;SDS011;38372;52.902;6.024;2023-11-21T09:13:10;6.75;;;2.65;;
52458;SDS011;38372;52.902;6.024;2023-11-21T09:15:36;4.90;;;2.28;;
52458;SDS011;38372;52.902;6.024;2023-11-21T09:18:02;6.45;;;3.10;;
52458;SDS011;38372;52.902;6.024;2023-11-21T09:20:28;12.00;;;3.03;;
52458;SDS011;38372;52.902;6.024;2023-11-21T09:22:54;7.20;;;2.72;;
52458;SDS011;38372;52.902;6.024;2023-11-21T09:25:21;11.35;;;3.45;;
52458;SDS011;38372;52.902;6.024;2023-11-21T09:27:47;12.73;;;4.53;;
52458;SDS011;38372;52.902;6.024;2023-11-21T09:30:13;12.82;;;5.53;;
52458;SDS011;38372;52.902;6.024;2023-11-21T09:32:39;15.68;;;5.82;;
52458;SDS011;38372;52.902;6.024;2023-11-21T09:35:06;9.35;;;4.35;;
52458;SDS011;38372;52.902;6.024;2023-11-21T09:37:34;10.60;;;4.73;;
52458;SDS011;38372;52.902;6.024;2023-11-21T09:40:01;9.98;;;3.63;;
52458;SDS011;38372;52.902;6.024;2023-11-21T09:42:38;8.93;;;3.50;;
52458;SDS011;38372;52.902;6.024;2023-11-21T09:47:59;8.82;;;3.83;;
52458;SDS011;38372;52.902;6.024;2023-11-21T09:50:25;8.75;;;3.20;;
52458;SDS011;38372;52.902;6.024;2023-11-21T09:52:54;8.90;;;3.35;;
52458;SDS011;38372;52.902;6.024;2023-11-21T09:55:24;5.85;;;3.20;;
52458;SDS011;38372;52.902;6.024;2023-11-21T09:57:52;11.52;;;3.80;;
52458;SDS011;38372;52.902;6.024;2023-11-21T10:00:21;7.78;;;3.42;;
52458;SDS011;38372;52.902;6.024;2023-11-21T10:02:49;12.18;;;3.90;;
52458;SDS011;38372;52.902;6.024;2023-11-21T10:05:16;7.97;;;3.63;;
52458;SDS011;38372;52.902;6.024;2023-11-21T10:07:45;8.98;;;4.00;;
52458;SDS011;38372;52.902;6.024;2023-11-21T10:10:12;11.35;;;4.60;;
52458;SDS011;38372;52.902;6.024;2023-11-21T10:12:43;12.68;;;5.03;;
52458;SDS011;38372;52.902;6.024;2023-11-21T10:15:13;14.43;;;4.82;;
52458;SDS011;38372;52.902;6.024;2023-11-21T10:17:41;18.60;;;6.20;;
52458;SDS011;38372;52.902;6.024;2023-11-21T10:20:11;10.45;;;4.15;;
52458;SDS011;38372;52.902;6.024;2023-11-21T10:22:39;11.23;;;4.80;;
52458;SDS011;38372;52.902;6.024;2023-11-21T10:25:09;15.85;;;6.60;;
52458;SDS011;38372;52.902;6.024;2023-11-21T10:27:36;15.63;;;5.82;;
52458;SDS011;38372;52.902;6.024;2023-11-21T10:30:04;11.73;;;4.63;;
52458;SDS011;38372;52.902;6.024;2023-11-21T10:32:31;11.70;;;4.40;;
52458;SDS011;38372;52.902;6.024;2023-11-21T10:34:58;17.48;;;5.60;;
52458;SDS011;38372;52.902;6.024;2023-11-21T10:37:25;11.63;;;5.07;;
52458;SDS011;38372;52.902;6.024;2023-11-21T10:39:58;10.90;;;4.53;;
52458;SDS011;38372;52.902;6.024;2023-11-21T10:42:24;12.27;;;3.95;;
52458;SDS011;38372;52.902;6.024;2023-11-21T10:44:51;8.93;;;3.75;;
52458;SDS011;38372;52.902;6.024;2023-11-21T10:47:17;14.02;;;4.78;;
52458;SDS011;38372;52.902;6.024;2023-11-21T10:49:44;11.20;;;4.15;;
52458;SDS011;38372;52.902;6.024;2023-11-21T10:52:13;7.32;;;3.97;;
52458;SDS011;38372;52.902;6.024;2023-11-21T10:54:45;9.60;;;4.10;;
52458;SDS011;38372;52.902;6.024;2023-11-21T10:57:12;10.40;;;4.25;;
52458;SDS011;38372;52.902;6.024;2023-11-21T10:59:42;8.30;;;4.13;;
52458;SDS011;38372;52.902;6.024;2023-11-21T11:02:23;8.30;;;3.95;;
52458;SDS011;38372;52.902;6.024;2023-11-21T11:04:53;8.18;;;3.92;;
52458;SDS011;38372;52.902;6.024;2023-11-21T11:07:25;8.68;;;4.07;;
52458;SDS011;38372;52.902;6.024;2023-11-21T11:09:58;10.80;;;3.80;;
52458;SDS011;38372;52.902;6.024;2023-11-21T11:12:25;8.85;;;4.07;;
52458;SDS011;38372;52.902;6.024;2023-11-21T11:14:51;8.20;;;4.22;;
52458;SDS011;38372;52.902;6.024;2023-11-21T11:17:18;10.90;;;3.83;;
52458;SDS011;38372;52.902;6.024;2023-11-21T11:19:47;9.57;;;4.35;;
52458;SDS011;38372;52.902;6.024;2023-11-21T11:28:14;10.27;;;4.38;;
52458;SDS011;38372;52.902;6.024;2023-11-21T11:33:48;7.25;;;4.10;;
52458;SDS011;38372;52.902;6.024;2023-11-21T11:36:49;8.05;;;4.10;;
52458;SDS011;38372;52.902;6.024;2023-11-21T11:39:30;8.32;;;3.42;;
52458;SDS011;38372;52.902;6.024;2023-11-21T11:42:01;11.32;;;4.10;;
52458;SDS011;38372;52.902;6.024;2023-11-21T11:47:21;8.15;;;4.53;;
52458;SDS011;38372;52.902;6.024;2023-11-21T11:52:51;7.90;;;3.40;;
52458;SDS011;38372;52.902;6.024;2023-11-21T11:55:23;8.88;;;4.18;;
52458;SDS011;38372;52.902;6.024;2023-11-21T11:57:53;6.35;;;3.97;;
52458;SDS011;38372;52.902;6.024;2023-11-21T12:02:55;6.53;;;3.28;;
52458;SDS011;38372;52.902;6.024;2023-11-21T12:05:28;8.35;;;3.22;;
52458;SDS011;38372;52.902;6.024;2023-11-21T12:07:58;5.30;;;3.15;;
52458;SDS011;38372;52.902;6.024;2023-11-21T12:10:32;10.70;;;4.53;;
52458;SDS011;38372;52.902;6.024;2023-11-21T12:13:06;7.65;;;3.80;;
52458;SDS011;38372;52.902;6.024;2023-11-21T12:15:35;8.45;;;2.85;;
52458;SDS011;38372;52.902;6.024;2023-11-21T12:18:02;8.63;;;3.45;;
52458;SDS011;38372;52.902;6.024;2023-11-21T12:20:28;6.18;;;3.20;;
52458;SDS011;38372;52.902;6.024;2023-11-21T12:22:58;5.80;;;2.85;;
52458;SDS011;38372;52.902;6.024;2023-11-21T12:25:26;4.70;;;2.60;;
52458;SDS011;38372;52.902;6.024;2023-11-21T12:27:57;8.55;;;2.80;;
52458;SDS011;38372;52.902;6.024;2023-11-21T12:30:29;6.47;;;3.08;;
52458;SDS011;38372;52.902;6.024;2023-11-21T12:32:57;5.88;;;3.42;;
52458;SDS011;38372;52.902;6.024;2023-11-21T12:35:25;7.15;;;3.63;;
52458;SDS011;38372;52.902;6.024;2023-11-21T12:37:52;6.47;;;3.20;;
52458;SDS011;38372;52.902;6.024;2023-11-21T12:40:22;8.32;;;3.08;;
52458;SDS011;38372;52.902;6.024;2023-11-21T12:42:49;5.50;;;2.85;;
52458;SDS011;38372;52.902;6.024;2023-11-21T12:45:24;10.85;;;3.75;;
52458;SDS011;38372;52.902;6.024;2023-11-21T12:47:59;5.65;;;2.63;;
52458;SDS011;38372;52.902;6.024;2023-11-21T12:50:29;6.43;;;3.00;;
52458;SDS011;38372;52.902;6.024;2023-11-21T12:53:06;6.90;;;2.53;;
52458;SDS011;38372;52.902;6.024;2023-11-21T12:55:41;5.32;;;2.30;;
52458;SDS011;38372;52.902;6.024;2023-11-21T12:58:15;6.35;;;2.67;;
52458;SDS011;38372;52.902;6.024;2023-11-21T13:00:45;5.85;;;3.08;;
52458;SDS011;38372;52.902;6.024;2023-11-21T13:03:13;6.45;;;2.50;;
52458;SDS011;38372;52.902;6.024;2023-11-21T13:05:51;6.65;;;2.40;;
52458;SDS011;38372;52.902;6.024;2023-11-21T13:08:20;8.25;;;3.15;;
52458;SDS011;38372;52.902;6.024;2023-11-21T13:10:51;4.40;;;2.58;;
52458;SDS011;38372;52.902;6.024;2023-11-21T13:13:20;7.10;;;2.40;;
52458;SDS011;38372;52.902;6.024;2023-11-21T13:15:56;4.95;;;3.17;;
52458;SDS011;38372;52.902;6.024;2023-11-21T13:18:26;5.55;;;2.45;;
52458;SDS011;38372;52.902;6.024;2023-11-21T13:20:56;5.18;;;2.50;;
52458;SDS011;38372;52.902;6.024;2023-11-21T13:23:40;6.30;;;2.35;;
52458;SDS011;38372;52.902;6.024;2023-11-21T13:26:07;4.28;;;1.80;;
52458;SDS011;38372;52.902;6.024;2023-11-21T13:28:34;6.35;;;2.67;;
52458;SDS011;38372;52.902;6.024;2023-11-21T13:31:01;8.52;;;2.78;;
52458;SDS011;38372;52.902;6.024;2023-11-21T13:33:37;4.95;;;2.00;;
52458;SDS011;38372;52.902;6.024;2023-11-21T13:36:06;5.20;;;2.50;;
52458;SDS011;38372;52.902;6.024;2023-11-21T13:38:34;4.77;;;2.07;;
52458;SDS011;38372;52.902;6.024;2023-11-21T13:41:02;5.63;;;2.15;;
52458;SDS011;38372;52.902;6.024;2023-11-21T13:43:32;5.78;;;2.08;;
52458;SDS011;38372;52.902;6.024;2023-11-21T13:45:58;4.78;;;2.28;;
52458;SDS011;38372;52.902;6.024;2023-11-21T13:48:38;4.28;;;1.63;;
52458;SDS011;38372;52.902;6.024;2023-11-21T13:51:08;4.60;;;2.30;;
52458;SDS011;38372;52.902;6.024;2023-11-21T13:53:47;3.90;;;2.10;;
52458;SDS011;38372;52.902;6.024;2023-11-21T13:56:15;4.07;;;2.47;;
52458;SDS011;38372;52.902;6.024;2023-11-21T13:58:49;3.72;;;1.60;;
52458;SDS011;38372;52.902;6.024;2023-11-21T14:01:19;5.03;;;2.00;;
52458;SDS011;38372;52.902;6.024;2023-11-21T14:03:58;4.40;;;1.55;;
52458;SDS011;38372;52.902;6.024;2023-11-21T14:06:51;4.15;;;2.17;;
52458;SDS011;38372;52.902;6.024;2023-11-21T14:09:18;4.63;;;2.00;;
52458;SDS011;38372;52.902;6.024;2023-11-21T14:11:50;4.25;;;1.98;;
52458;SDS011;38372;52.902;6.024;2023-11-21T14:14:18;5.72;;;2.92;;
52458;SDS011;38372;52.902;6.024;2023-11-21T14:16:47;4.82;;;2.08;;
52458;SDS011;38372;52.902;6.024;2023-11-21T14:19:12;4.40;;;1.88;;
52458;SDS011;38372;52.902;6.024;2023-11-21T14:21:42;3.55;;;1.70;;
52458;SDS011;38372;52.902;6.024;2023-11-21T14:24:09;4.80;;;1.90;;
52458;SDS011;38372;52.902;6.024;2023-11-21T14:26:38;4.35;;;2.15;;
52458;SDS011;38372;52.902;6.024;2023-11-21T14:29:08;5.22;;;2.30;;
52458;SDS011;38372;52.902;6.024;2023-11-21T14:31:36;5.15;;;2.33;;
52458;SDS011;38372;52.902;6.024;2023-11-21T14:34:02;3.85;;;1.75;;
52458;SDS011;38372;52.902;6.024;2023-11-21T14:36:28;3.45;;;2.08;;
52458;SDS011;38372;52.902;6.024;2023-11-21T14:38:54;5.60;;;2.42;;
52458;SDS011;38372;52.902;6.024;2023-11-21T14:41:20;6.97;;;2.15;;
52458;SDS011;38372;52.902;6.024;2023-11-21T14:43:45;4.97;;;2.00;;
52458;SDS011;38372;52.902;6.024;2023-11-21T14:46:14;6.45;;;1.77;;
52458;SDS011;38372;52.902;6.024;2023-11-21T14:48:42;4.78;;;1.83;;
52458;SDS011;38372;52.902;6.024;2023-11-21T14:51:11;7.63;;;2.17;;
52458;SDS011;38372;52.902;6.024;2023-11-21T14:53:56;3.92;;;2.25;;
52458;SDS011;38372;52.902;6.024;2023-11-21T14:56:31;5.80;;;2.15;;
52458;SDS011;38372;52.902;6.024;2023-11-21T14:59:02;4.47;;;2.20;;
52458;SDS011;38372;52.902;6.024;2023-11-21T15:01:33;6.38;;;2.67;;
52458;SDS011;38372;52.902;6.024;2023-11-21T15:04:20;6.00;;;2.63;;
52458;SDS011;38372;52.902;6.024;2023-11-21T15:06:59;4.97;;;2.70;;
52458;SDS011;38372;52.902;6.024;2023-11-21T15:09:25;5.13;;;2.47;;
52458;SDS011;38372;52.902;6.024;2023-11-21T15:11:56;6.93;;;3.03;;
52458;SDS011;38372;52.902;6.024;2023-11-21T15:14:29;6.28;;;2.33;;
52458;SDS011;38372;52.902;6.024;2023-11-21T15:16:59;5.70;;;2.83;;
52458;SDS011;38372;52.902;6.024;2023-11-21T15:19:26;6.32;;;2.97;;
52458;SDS011;38372;52.902;6.024;2023-11-21T15:21:53;7.10;;;2.85;;
52458;SDS011;38372;52.902;6.024;2023-11-21T15:24:19;4.85;;;2.28;;
52458;SDS011;38372;52.902;6.024;2023-11-21T15:26:45;4.20;;;2.08;;
52458;SDS011;38372;52.902;6.024;2023-11-21T15:29:11;5.50;;;2.80;;
52458;SDS011;38372;52.902;6.024;2023-11-21T15:31:39;5.90;;;2.45;;
52458;SDS011;38372;52.902;6.024;2023-11-21T15:34:09;4.40;;;2.50;;
52458;SDS011;38372;52.902;6.024;2023-11-21T15:36:38;5.47;;;2.67;;
52458;SDS011;38372;52.902;6.024;2023-11-21T15:39:04;4.50;;;1.80;;
52458;SDS011;38372;52.902;6.024;2023-11-21T15:41:30;5.20;;;2.58;;
52458;SDS011;38372;52.902;6.024;2023-11-21T15:43:57;5.55;;;1.98;;
52458;SDS011;38372;52.902;6.024;2023-11-21T15:46:22;5.25;;;2.67;;
52458;SDS011;38372;52.902;6.024;2023-11-21T15:48:48;8.13;;;2.72;;
52458;SDS011;38372;52.902;6.024;2023-11-21T15:51:19;5.13;;;2.20;;
52458;SDS011;38372;52.902;6.024;2023-11-21T15:53:45;5.93;;;2.55;;
52458;SDS011;38372;52.902;6.024;2023-11-21T15:56:11;4.57;;;2.22;;
52458;SDS011;38372;52.902;6.024;2023-11-21T15:58:41;5.22;;;2.22;;
52458;SDS011;38372;52.902;6.024;2023-11-21T16:01:10;5.43;;;2.58;;
52458;SDS011;38372;52.902;6.024;2023-11-21T16:03:38;7.22;;;2.08;;
52458;SDS011;38372;52.902;6.024;2023-11-21T16:06:05;5.18;;;2.00;;
52458;SDS011;38372;52.902;6.024;2023-11-21T16:08:34;7.70;;;2.90;;
52458;SDS011;38372;52.902;6.024;2023-11-21T16:11:01;6.82;;;2.35;;
52458;SDS011;38372;52.902;6.024;2023-11-21T16:13:27;6.93;;;2.70;;
52458;SDS011;38372;52.902;6.024;2023-11-21T16:15:53;5.40;;;2.33;;
52458;SDS011;38372;52.902;6.024;2023-11-21T16:18:19;6.63;;;2.47;;
52458;SDS011;38372;52.902;6.024;2023-11-21T16:20:46;4.57;;;2.17;;
52458;SDS011;38372;52.902;6.024;2023-11-21T16:23:15;4.82;;;2.03;;
52458;SDS011;38372;52.902;6.024;2023-11-21T16:25:42;4.47;;;2.25;;
52458;SDS011;38372;52.902;6.024;2023-11-21T16:28:08;2.40;;;1.35;;
52458;SDS011;38372;52.902;6.024;2023-11-21T16:30:34;3.22;;;1.77;;
52458;SDS011;38372;52.902;6.024;2023-11-21T16:33:00;3.65;;;2.03;;
52458;SDS011;38372;52.902;6.024;2023-11-21T16:35:28;4.90;;;2.05;;
52458;SDS011;38372;52.902;6.024;2023-11-21T16:37:54;4.55;;;1.58;;
52458;SDS011;38372;52.902;6.024;2023-11-21T16:40:20;2.65;;;1.65;;
52458;SDS011;38372;52.902;6.024;2023-11-21T16:42:46;3.95;;;1.90;;
52458;SDS011;38372;52.902;6.024;2023-11-21T16:45:13;2.13;;;1.30;;
52458;SDS011;38372;52.902;6.024;2023-11-21T16:47:38;4.57;;;1.83;;
52458;SDS011;38372;52.902;6.024;2023-11-21T16:50:08;4.37;;;1.87;;
52458;SDS011;38372;52.902;6.024;2023-11-21T16:52:34;3.50;;;1.55;;
52458;SDS011;38372;52.902;6.024;2023-11-21T16:55:00;3.00;;;1.55;;
52458;SDS011;38372;52.902;6.024;2023-11-21T16:57:26;2.63;;;1.50;;
52458;SDS011;38372;52.902;6.024;2023-11-21T16:59:51;4.47;;;2.17;;
52458;SDS011;38372;52.902;6.024;2023-11-21T17:02:18;4.03;;;1.52;;
52458;SDS011;38372;52.902;6.024;2023-11-21T17:04:44;4.68;;;2.33;;
52458;SDS011;38372;52.902;6.024;2023-11-21T17:07:21;3.42;;;1.52;;
52458;SDS011;38372;52.902;6.024;2023-11-21T17:09:47;2.92;;;1.55;;
52458;SDS011;38372;52.902;6.024;2023-11-21T17:12:13;4.15;;;1.83;;
52458;SDS011;38372;52.902;6.024;2023-11-21T17:14:40;6.70;;;2.03;;
52458;SDS011;38372;52.902;6.024;2023-11-21T17:17:09;3.22;;;1.38;;
52458;SDS011;38372;52.902;6.024;2023-11-21T17:19:36;3.95;;;1.92;;
52458;SDS011;38372;52.902;6.024;2023-11-21T17:22:02;1.63;;;1.30;;
52458;SDS011;38372;52.902;6.024;2023-11-21T17:24:30;3.00;;;1.65;;
52458;SDS011;38372;52.902;6.024;2023-11-21T17:26:58;2.65;;;1.63;;
52458;SDS011;38372;52.902;6.024;2023-11-21T17:29:24;2.75;;;1.75;;
52458;SDS011;38372;52.902;6.024;2023-11-21T17:31:51;4.65;;;1.33;;
52458;SDS011;38372;52.902;6.024;2023-11-21T17:34:17;4.00;;;1.83;;
52458;SDS011;38372;52.902;6.024;2023-11-21T17:36:44;4.05;;;1.73;;
52458;SDS011;38372;52.902;6.024;2023-11-21T17:39:11;3.50;;;1.98;;
52458;SDS011;38372;52.902;6.024;2023-11-21T17:41:38;5.38;;;1.77;;
52458;SDS011;38372;52.902;6.024;2023-11-21T17:44:04;3.30;;;1.60;;
52458;SDS011;38372;52.902;6.024;2023-11-21T17:46:32;5.72;;;2.33;;
52458;SDS011;38372;52.902;6.024;2023-11-21T17:48:58;5.28;;;1.55;;
52458;SDS011;38372;52.902;6.024;2023-11-21T17:51:24;3.70;;;2.20;;
52458;SDS011;38372;52.902;6.024;2023-11-21T17:53:50;7.28;;;2.00;;
52458;SDS011;38372;52.902;6.024;2023-11-21T17:56:17;2.85;;;1.35;;
52458;SDS011;38372;52.902;6.024;2023-11-21T17:58:44;3.20;;;1.67;;
52458;SDS011;38372;52.902;6.024;2023-11-21T18:01:10;3.70;;;1.80;;
52458;SDS011;38372;52.902;6.024;2023-11-21T18:03:37;7.50;;;1.95;;
52458;SDS011;38372;52.902;6.024;2023-11-21T18:06:04;2.55;;;1.70;;
52458;SDS011;38372;52.902;6.024;2023-11-21T18:08:30;3.10;;;1.65;;
52458;SDS011;38372;52.902;6.024;2023-11-21T18:10:55;6.57;;;2.03;;
52458;SDS011;38372;52.902;6.024;2023-11-21T18:13:24;4.00;;;1.83;;
52458;SDS011;38372;52.902;6.024;2023-11-21T18:15:50;5.30;;;2.08;;
52458;SDS011;38372;52.902;6.024;2023-11-21T18:18:16;5.28;;;2.08;;
52458;SDS011;38372;52.902;6.024;2023-11-21T18:20:42;6.55;;;1.85;;
52458;SDS011;38372;52.902;6.024;2023-11-21T18:23:10;3.45;;;1.98;;
52458;SDS011;38372;52.902;6.024;2023-11-21T18:25:36;5.00;;;2.78;;
52458;SDS011;38372;52.902;6.024;2023-11-21T18:28:04;6.25;;;3.17;;
52458;SDS011;38372;52.902;6.024;2023-11-21T18:30:29;4.65;;;2.30;;
52458;SDS011;38372;52.902;6.024;2023-11-21T18:32:55;6.78;;;2.10;;
52458;SDS011;38372;52.902;6.024;2023-11-21T18:35:21;5.88;;;2.13;;
52458;SDS011;38372;52.902;6.024;2023-11-21T18:37:47;4.65;;;2.47;;
52458;SDS011;38372;52.902;6.024;2023-11-21T18:40:13;5.03;;;2.33;;
52458;SDS011;38372;52.902;6.024;2023-11-21T18:42:41;3.40;;;2.15;;
52458;SDS011;38372;52.902;6.024;2023-11-21T18:45:09;8.45;;;2.08;;
52458;SDS011;38372;52.902;6.024;2023-11-21T18:47:35;7.75;;;2.40;;
52458;SDS011;38372;52.902;6.024;2023-11-21T18:50:01;6.97;;;2.20;;
52458;SDS011;38372;52.902;6.024;2023-11-21T18:52:28;5.13;;;1.98;;
52458;SDS011;38372;52.902;6.024;2023-11-21T18:54:54;5.50;;;2.40;;
52458;SDS011;38372;52.902;6.024;2023-11-21T18:57:20;4.50;;;1.98;;
52458;SDS011;38372;52.902;6.024;2023-11-21T18:59:53;2.60;;;1.92;;
52458;SDS011;38372;52.902;6.024;2023-11-21T19:02:20;3.55;;;1.70;;
52458;SDS011;38372;52.902;6.024;2023-11-21T19:04:45;2.65;;;1.60;;
52458;SDS011;38372;52.902;6.024;2023-11-21T19:07:14;3.65;;;2.33;;
52458;SDS011;38372;52.902;6.024;2023-11-21T19:09:41;8.18;;;2.70;;
52458;SDS011;38372;52.902;6.024;2023-11-21T19:12:07;5.55;;;2.38;;
52458;SDS011;38372;52.902;6.024;2023-11-21T19:14:33;6.82;;;2.30;;
52458;SDS011;38372;52.902;6.024;2023-11-21T19:16:59;3.92;;;1.90;;
52458;SDS011;38372;52.902;6.024;2023-11-21T19:19:29;7.00;;;2.17;;
52458;SDS011;38372;52.902;6.024;2023-11-21T19:21:55;7.30;;;3.05;;
52458;SDS011;38372;52.902;6.024;2023-11-21T19:24:21;4.25;;;2.42;;
52458;SDS011;38372;52.902;6.024;2023-11-21T19:26:48;4.68;;;2.70;;
52458;SDS011;38372;52.902;6.024;2023-11-21T19:29:14;7.05;;;2.00;;
52458;SDS011;38372;52.902;6.024;2023-11-21T19:31:40;6.25;;;2.78;;
52458;SDS011;38372;52.902;6.024;2023-11-21T19:34:09;7.55;;;2.47;;
52458;SDS011;38372;52.902;6.024;2023-11-21T19:36:38;6.47;;;2.67;;
52458;SDS011;38372;52.902;6.024;2023-11-21T19:39:06;6.68;;;3.15;;
52458;SDS011;38372;52.902;6.024;2023-11-21T19:41:33;9.27;;;3.30;;
52458;SDS011;38372;52.902;6.024;2023-11-21T19:43:59;5.20;;;2.70;;
52458;SDS011;38372;52.902;6.024;2023-11-21T19:46:24;5.60;;;2.85;;
52458;SDS011;38372;52.902;6.024;2023-11-21T19:48:50;6.25;;;2.95;;
52458;SDS011;38372;52.902;6.024;2023-11-21T19:51:18;7.55;;;3.13;;
52458;SDS011;38372;52.902;6.024;2023-11-21T19:53:43;8.32;;;3.53;;
52458;SDS011;38372;52.902;6.024;2023-11-21T19:56:09;9.05;;;3.88;;
52458;SDS011;38372;52.902;6.024;2023-11-21T19:58:35;6.00;;;3.72;;
52458;SDS011;38372;52.902;6.024;2023-11-21T20:01:02;6.13;;;2.78;;
52458;SDS011;38372;52.902;6.024;2023-11-21T20:03:27;6.97;;;3.42;;
52458;SDS011;38372;52.902;6.024;2023-11-21T20:05:54;5.35;;;3.25;;
52458;SDS011;38372;52.902;6.024;2023-11-21T20:08:20;6.20;;;2.53;;
52458;SDS011;38372;52.902;6.024;2023-11-21T20:10:46;5.45;;;3.45;;
52458;SDS011;38372;52.902;6.024;2023-11-21T20:13:12;8.48;;;3.22;;
52458;SDS011;38372;52.902;6.024;2023-11-21T20:15:38;7.82;;;3.45;;
52458;SDS011;38372;52.902;6.024;2023-11-21T20:18:05;7.93;;;2.92;;
52458;SDS011;38372;52.902;6.024;2023-11-21T20:20:31;6.50;;;3.17;;
52458;SDS011;38372;52.902;6.024;2023-11-21T20:22:58;5.63;;;3.00;;
52458;SDS011;38372;52.902;6.024;2023-11-21T20:25:26;4.28;;;2.45;;
52458;SDS011;38372;52.902;6.024;2023-11-21T20:27:53;5.53;;;2.90;;
52458;SDS011;38372;52.902;6.024;2023-11-21T20:30:20;6.60;;;3.53;;
52458;SDS011;38372;52.902;6.024;2023-11-21T20:32:48;5.20;;;2.90;;
52458;SDS011;38372;52.902;6.024;2023-11-21T20:35:18;7.65;;;3.17;;
52458;SDS011;38372;52.902;6.024;2023-11-21T20:37:45;2.77;;;1.63;;
52458;SDS011;38372;52.902;6.024;2023-11-21T20:40:14;5.95;;;3.50;;
52458;SDS011;38372;52.902;6.024;2023-11-21T20:42:41;7.18;;;2.85;;
52458;SDS011;38372;52.902;6.024;2023-11-21T20:45:12;6.15;;;3.10;;
52458;SDS011;38372;52.902;6.024;2023-11-21T20:47:41;4.40;;;2.85;;
52458;SDS011;38372;52.902;6.024;2023-11-21T20:50:08;5.47;;;1.83;;
52458;SDS011;38372;52.902;6.024;2023-11-21T20:52:34;7.40;;;3.42;;
52458;SDS011;38372;52.902;6.024;2023-11-21T20:55:01;3.97;;;2.38;;
52458;SDS011;38372;52.902;6.024;2023-11-21T20:57:28;5.35;;;3.08;;
52458;SDS011;38372;52.902;6.024;2023-11-21T20:59:53;4.70;;;2.83;;
52458;SDS011;38372;52.902;6.024;2023-11-21T21:02:19;3.05;;;2.03;;
52458;SDS011;38372;52.902;6.024;2023-11-21T21:04:45;6.57;;;3.55;;
52458;SDS011;38372;52.902;6.024;2023-11-21T21:07:11;5.10;;;2.85;;
52458;SDS011;38372;52.902;6.024;2023-11-21T21:09:37;5.65;;;3.05;;
52458;SDS011;38372;52.902;6.024;2023-11-21T21:12:03;5.68;;;2.63;;
52458;SDS011;38372;52.902;6.024;2023-11-21T21:14:30;4.82;;;2.28;;
52458;SDS011;38372;52.902;6.024;2023-11-21T21:16:56;5.95;;;2.60;;
52458;SDS011;38372;52.902;6.024;2023-11-21T21:19:25;5.47;;;2.63;;
52458;SDS011;38372;52.902;6.024;2023-11-21T21:21:51;3.25;;;2.17;;
52458;SDS011;38372;52.902;6.024;2023-11-21T21:24:17;6.47;;;2.60;;
52458;SDS011;38372;52.902;6.024;2023-11-21T21:26:43;4.85;;;2.72;;
52458;SDS011;38372;52.902;6.024;2023-11-21T21:29:09;8.18;;;3.13;;
52458;SDS011;38372;52.902;6.024;2023-11-21T21:31:35;5.38;;;3.33;;
52458;SDS011;38372;52.902;6.024;2023-11-21T21:34:04;5.88;;;3.03;;
52458;SDS011;38372;52.902;6.024;2023-11-21T21:36:30;5.95;;;2.85;;
52458;SDS011;38372;52.902;6.024;2023-11-21T21:38:59;6.57;;;3.03;;
52458;SDS011;38372;52.902;6.024;2023-11-21T21:41:25;5.97;;;2.63;;
52458;SDS011;38372;52.902;6.024;2023-11-21T21:43:50;5.65;;;3.25;;
52458;SDS011;38372;52.902;6.024;2023-11-21T21:46:17;6.80;;;2.95;;
52458;SDS011;38372;52.902;6.024;2023-11-21T21:48:46;6.22;;;3.20;;
52458;SDS011;38372;52.902;6.024;2023-11-21T21:51:15;5.82;;;3.35;;
52458;SDS011;38372;52.902;6.024;2023-11-21T21:56:08;5.55;;;2.58;;
52458;SDS011;38372;52.902;6.024;2023-11-21T21:58:34;4.32;;;2.80;;
52458;SDS011;38372;52.902;6.024;2023-11-21T22:01:00;7.30;;;3.90;;
52458;SDS011;38372;52.902;6.024;2023-11-21T22:05:57;5.10;;;2.75;;
52458;SDS011;38372;52.902;6.024;2023-11-21T22:08:23;7.63;;;3.30;;
52458;SDS011;38372;52.902;6.024;2023-11-21T22:10:49;7.90;;;3.47;;
52458;SDS011;38372;52.902;6.024;2023-11-21T22:13:15;10.20;;;4.53;;
52458;SDS011;38372;52.902;6.024;2023-11-21T22:15:41;4.35;;;2.35;;
52458;SDS011;38372;52.902;6.024;2023-11-21T22:18:07;7.57;;;3.63;;
52458;SDS011;38372;52.902;6.024;2023-11-21T22:20:34;7.60;;;3.50;;
52458;SDS011;38372;52.902;6.024;2023-11-21T22:23:00;5.88;;;3.15;;
52458;SDS011;38372;52.902;6.024;2023-11-21T22:25:27;6.15;;;3.33;;
52458;SDS011;38372;52.902;6.024;2023-11-21T22:27:53;6.78;;;3.40;;
52458;SDS011;38372;52.902;6.024;2023-11-21T22:30:19;10.75;;;4.57;;